Time;durP1;ratioP1;P1;durP2;ratioP2;P2;SDS_P1;SDS_P2;PMS_P1;PMS_P2;Temp;Humidity;BMP_temperature;BMP_pressure;BME280_temperature;BME280_humidity;BME280_pressure;Samples;Min_cycle;Max_cycle;Signal;HPM_P1;HPM_P2
2022/07/22 00:01:31;;;;;;;1.00;0.90;;;25.90;54.50;25.00;101570.00;;;;5028839;28;20084;-67
2022/07/22 00:04:17;;;;;;;0.50;0.50;;;25.90;54.50;25.00;101578.00;;;;5029568;28;20103;-66
2022/07/22 00:07:03;;;;;;;1.60;0.50;;;25.90;54.50;25.00;101578.00;;;;5021155;28;20118;-66
2022/07/22 00:09:49;;;;;;;0.70;0.70;;;25.80;54.40;25.00;101577.00;;;;5024275;28;20076;-66
2022/07/22 00:12:36;;;;;;;0.70;0.70;;;25.80;54.40;25.00;101586.00;;;;5020922;28;20041;-67
2022/07/22 00:15:22;;;;;;;0.50;0.50;;;25.80;54.40;25.00;101589.00;;;;5026203;28;20071;-67
2022/07/22 00:18:08;;;;;;;1.50;0.70;;;25.80;54.40;25.00;101581.00;;;;5026270;28;20038;-66
2022/07/22 00:20:54;;;;;;;1.13;0.65;;;25.90;54.40;25.00;101582.00;;;;5024101;28;20042;-66
2022/07/22 00:23:40;;;;;;;0.88;0.70;;;25.80;54.40;24.90;101590.00;;;;5025335;28;20041;-66
2022/07/22 00:26:26;;;;;;;1.55;0.63;;;25.80;54.40;24.90;101593.00;;;;5025233;28;20495;-66
2022/07/22 00:29:12;;;;;;;0.77;0.52;;;25.80;54.40;24.90;101593.00;;;;5031240;28;20033;-66
2022/07/22 00:31:58;;;;;;;0.65;0.50;;;25.80;54.40;24.90;101596.00;;;;5016601;28;20064;-66
2022/07/22 00:34:44;;;;;;;1.08;0.50;;;25.80;54.40;24.90;101602.00;;;;5025274;28;20053;-66
2022/07/22 00:37:30;;;;;;;0.93;0.43;;;25.70;54.30;24.90;101588.00;;;;5021700;28;20098;-66
2022/07/22 00:40:16;;;;;;;0.60;0.60;;;25.80;54.40;24.90;101591.00;;;;5020076;28;20074;-66
2022/07/22 00:43:02;;;;;;;2.83;0.60;;;25.80;54.40;24.90;101598.00;;;;5024433;28;20033;-66
2022/07/22 00:45:48;;;;;;;0.90;0.52;;;25.80;54.40;24.90;101592.00;;;;5018135;28;20037;-66
2022/07/22 00:48:34;;;;;;;1.42;0.52;;;25.80;54.30;24.90;101592.00;;;;5021571;28;20034;-66
2022/07/22 00:51:22;;;;;;;0.40;0.40;;;25.80;54.40;24.90;101597.00;;;;5027492;28;20515;-66
2022/07/22 00:54:08;;;;;;;0.73;0.50;;;25.80;54.30;24.90;101597.00;;;;5050783;28;20052;-66
2022/07/22 00:56:55;;;;;;;0.70;0.50;;;25.80;54.30;24.90;101596.00;;;;5013811;28;20058;-66
2022/07/22 00:59:42;;;;;;;1.30;0.70;;;25.80;54.30;24.90;101597.00;;;;5022177;28;20578;-66
2022/07/22 01:02:28;;;;;;;1.52;0.50;;;25.80;54.20;24.90;101597.00;;;;5024295;28;20778;-66
2022/07/22 01:05:14;;;;;;;1.60;0.85;;;25.80;54.20;24.90;101594.00;;;;5027718;28;20033;-66
2022/07/22 01:08:00;;;;;;;0.77;0.50;;;25.80;54.20;24.90;101596.00;;;;5023691;28;20041;-66
2022/07/22 01:10:46;;;;;;;0.55;0.50;;;25.80;54.20;24.90;101597.00;;;;5020533;28;20109;-66
2022/07/22 01:13:32;;;;;;;0.30;0.30;;;25.80;54.20;24.90;101597.00;;;;5027122;28;20172;-66
2022/07/22 01:16:18;;;;;;;0.52;0.52;;;25.80;54.20;24.90;101602.00;;;;5028000;28;20087;-66
2022/07/22 01:19:04;;;;;;;1.13;0.43;;;25.80;54.20;24.90;101600.00;;;;5024172;28;20037;-66
2022/07/22 01:21:51;;;;;;;0.52;0.47;;;25.80;54.20;24.90;101598.00;;;;5024542;28;20045;-66
2022/07/22 01:24:37;;;;;;;1.20;0.50;;;25.80;54.20;24.90;101601.00;;;;5024018;28;20506;-66
2022/07/22 01:27:23;;;;;;;0.70;0.60;;;25.80;54.10;24.90;101600.00;;;;5023457;28;20462;-67
2022/07/22 01:30:09;;;;;;;0.70;0.47;;;25.80;54.10;24.90;101600.00;;;;5019683;28;20045;-67
2022/07/22 01:32:55;;;;;;;1.05;0.60;;;25.80;54.10;24.90;101598.00;;;;5023913;28;20388;-66
2022/07/22 01:35:41;;;;;;;0.40;0.40;;;25.70;54.00;24.90;101603.00;;;;5027062;28;20041;-66
2022/07/22 01:38:27;;;;;;;0.38;0.30;;;25.80;54.00;24.90;101606.00;;;;5025923;28;20083;-67
2022/07/22 01:41:13;;;;;;;1.60;0.68;;;25.70;54.00;24.80;101606.00;;;;5026493;28;20056;-67
2022/07/22 01:43:59;;;;;;;1.25;0.50;;;25.70;54.00;24.80;101602.00;;;;5021958;28;20046;-67
2022/07/22 01:46:45;;;;;;;0.30;0.30;;;25.70;54.00;24.80;101604.00;;;;5024506;28;20100;-67
2022/07/22 01:49:33;;;;;;;2.17;0.60;;;25.70;54.00;24.80;101605.00;;;;5033008;28;20398;-67
2022/07/22 01:52:19;;;;;;;1.00;0.60;;;25.70;54.00;24.80;101606.00;;;;5026021;28;20049;-66
2022/07/22 01:55:08;;;;;;;0.90;0.50;;;25.70;54.00;24.80;101608.00;;;;5024734;28;20041;-66
2022/07/22 01:57:54;;;;;;;1.25;0.40;;;25.70;54.00;24.80;101603.00;;;;5025302;28;20483;-66
2022/07/22 02:00:40;;;;;;;2.10;0.47;;;25.70;54.00;24.80;101612.00;;;;5026316;28;20441;-67
2022/07/22 02:03:26;;;;;;;1.40;0.40;;;25.70;54.00;24.80;101612.00;;;;5030232;28;20071;-66
2022/07/22 02:06:12;;;;;;;0.45;0.40;;;25.60;53.90;24.80;101603.00;;;;5026462;28;20439;-66
2022/07/22 02:08:58;;;;;;;0.60;0.60;;;25.60;53.90;24.80;101608.00;;;;5026267;28;20049;-66
2022/07/22 02:11:45;;;;;;;1.25;0.70;;;25.70;54.00;24.80;101603.00;;;;5021848;28;20045;-66
2022/07/22 02:14:31;;;;;;;0.50;0.38;;;25.70;54.00;24.80;101607.00;;;;5027488;28;20048;-66
2022/07/22 02:17:17;;;;;;;0.47;0.32;;;25.60;54.20;24.80;101612.00;;;;5021600;28;20506;-67
2022/07/22 02:20:03;;;;;;;1.00;0.45;;;25.60;53.90;24.80;101602.00;;;;5028389;28;20123;-66
2022/07/22 02:22:49;;;;;;;0.67;0.40;;;25.70;54.00;24.80;101606.00;;;;5030418;28;20042;-67
2022/07/22 02:25:36;;;;;;;0.47;0.43;;;25.70;53.90;24.80;101608.00;;;;5022557;28;20291;-66
2022/07/22 02:28:22;;;;;;;0.40;0.40;;;25.60;53.80;24.80;101597.00;;;;5037680;28;20045;-66
2022/07/22 02:31:08;;;;;;;0.68;0.63;;;25.60;53.80;24.80;101598.00;;;;5022983;28;20507;-67
2022/07/22 02:33:54;;;;;;;0.82;0.70;;;25.70;53.90;24.80;101594.00;;;;5027277;28;20044;-66
2022/07/22 02:36:40;;;;;;;0.63;0.50;;;25.60;53.80;24.80;101595.00;;;;5032217;28;20103;-66
2022/07/22 02:39:26;;;;;;;1.77;0.73;;;25.60;53.80;24.80;101590.00;;;;5028828;28;20250;-66
2022/07/22 02:42:12;;;;;;;1.13;0.60;;;25.60;53.80;24.80;101590.00;;;;5030797;28;20033;-66
2022/07/22 02:44:58;;;;;;;0.60;0.40;;;25.70;53.90;24.80;101592.00;;;;5024427;28;20033;-66
2022/07/22 02:47:53;;;;;;;0.65;0.43;;;25.70;53.90;24.80;101589.00;;;;5024550;28;20113;-66
2022/07/22 02:50:45;;;;;;;0.40;0.40;;;25.60;53.80;24.80;101587.00;;;;5029786;28;20048;-66
2022/07/22 02:53:31;;;;;;;0.40;0.40;;;25.60;53.80;24.80;101601.00;;;;5026229;28;20048;-66
2022/07/22 02:56:17;;;;;;;1.88;0.50;;;25.60;53.80;24.80;101601.00;;;;5029806;28;20511;-66
2022/07/22 02:59:03;;;;;;;1.45;0.50;;;25.60;53.70;24.80;101604.00;;;;5019727;28;20583;-66
2022/07/22 03:01:49;;;;;;;1.52;0.70;;;25.60;53.70;24.80;101602.00;;;;5025381;28;20060;-67
2022/07/22 03:04:35;;;;;;;0.98;0.60;;;25.60;53.70;24.80;101606.00;;;;5033357;28;20029;-66
2022/07/22 03:07:21;;;;;;;2.03;0.70;;;25.60;53.70;24.80;101608.00;;;;5017988;28;21308;-66
2022/07/22 03:10:08;;;;;;;0.75;0.47;;;25.60;53.70;24.80;101619.00;;;;5024745;28;20033;-67
2022/07/22 03:12:54;;;;;;;1.70;0.80;;;25.60;53.70;24.70;101616.00;;;;5026786;28;20033;-66
2022/07/22 03:15:40;;;;;;;2.00;0.70;;;25.60;53.70;24.70;101623.00;;;;5028262;28;20044;-66
2022/07/22 03:18:26;;;;;;;3.55;0.80;;;25.60;53.70;24.70;101625.00;;;;5026840;28;20048;-66
2022/07/22 03:21:12;;;;;;;1.00;0.70;;;25.60;53.70;24.70;101624.00;;;;5027068;28;20452;-66
2022/07/22 03:23:58;;;;;;;1.73;0.60;;;25.50;53.60;24.70;101628.00;;;;5031428;28;20065;-66
2022/07/22 03:26:44;;;;;;;0.70;0.57;;;25.60;53.70;24.70;101628.00;;;;5024886;28;20384;-66
2022/07/22 03:29:30;;;;;;;0.63;0.40;;;25.50;53.60;24.70;101627.00;;;;5025491;28;20037;-66
2022/07/22 03:32:16;;;;;;;1.05;0.60;;;25.50;53.60;24.70;101626.00;;;;5025891;28;20042;-66
2022/07/22 03:35:03;;;;;;;1.95;0.60;;;25.60;53.70;24.70;101622.00;;;;5027605;28;20084;-66
2022/07/22 03:37:49;;;;;;;1.70;0.98;;;25.50;53.60;24.70;101630.00;;;;5025957;28;20045;-66
2022/07/22 03:40:35;;;;;;;1.38;0.50;;;25.50;53.60;24.70;101622.00;;;;5024108;28;20081;-66
2022/07/22 03:43:21;;;;;;;0.95;0.57;;;25.50;53.60;24.70;101619.00;;;;5030129;28;20033;-66
2022/07/22 03:46:07;;;;;;;1.80;0.60;;;25.50;53.60;24.70;101630.00;;;;5025858;28;20514;-66
2022/07/22 03:48:53;;;;;;;0.88;0.40;;;25.60;53.60;24.70;101624.00;;;;5028323;28;20398;-66
2022/07/22 03:51:39;;;;;;;0.70;0.50;;;25.70;53.70;24.70;101623.00;;;;5023144;28;20045;-67
2022/07/22 03:54:25;;;;;;;2.15;0.60;;;25.50;53.60;24.70;101624.00;;;;5028296;28;20045;-66
2022/07/22 03:57:12;;;;;;;1.08;0.60;;;25.50;53.60;24.70;101626.00;;;;5026021;28;20121;-66
2022/07/22 03:59:58;;;;;;;0.90;0.50;;;25.50;53.60;24.70;101627.00;;;;5023070;28;20100;-67
2022/07/22 04:02:44;;;;;;;0.45;0.45;;;25.50;53.60;24.70;101632.00;;;;5022326;28;20482;-67
2022/07/22 04:05:30;;;;;;;0.60;0.60;;;25.50;53.50;24.70;101625.00;;;;5018691;28;20049;-66
2022/07/22 04:08:17;;;;;;;1.95;0.60;;;25.50;53.60;24.70;101624.00;;;;5023406;28;20397;-66
2022/07/22 04:11:03;;;;;;;;;;;25.50;53.50;24.60;101628.00;;;;5020616;28;20084;-66
2022/07/22 04:13:49;;;;;;;2.20;0.60;;;25.50;53.60;24.60;101630.00;;;;5053170;28;20438;-66
2022/07/22 04:16:35;;;;;;;1.40;0.68;;;25.60;53.40;24.60;101638.00;;;;5021228;28;20046;-66
2022/07/22 04:19:21;;;;;;;1.85;0.55;;;25.50;53.30;24.60;101640.00;;;;5024646;28;20056;-66
2022/07/22 04:22:07;;;;;;;3.28;0.80;;;25.50;53.30;24.60;101637.00;;;;5024553;28;20471;-66
2022/07/22 04:24:54;;;;;;;3.88;1.10;;;25.50;53.40;24.60;101638.00;;;;5019039;28;20042;-66
2022/07/22 04:27:40;;;;;;;1.23;0.60;;;25.50;53.40;24.60;101637.00;;;;5025493;28;20038;-66
2022/07/22 04:30:26;;;;;;;3.58;1.00;;;25.50;53.30;24.60;101634.00;;;;5024592;28;20446;-66
2022/07/22 04:33:12;;;;;;;1.65;0.55;;;25.50;53.30;24.60;101635.00;;;;5021464;28;20527;-66
2022/07/22 04:35:59;;;;;;;1.23;0.77;;;25.50;53.30;24.60;101628.00;;;;5023289;28;20030;-66
2022/07/22 04:38:45;;;;;;;0.70;0.70;;;25.50;53.30;24.60;101637.00;;;;5023946;28;20037;-66
2022/07/22 04:41:31;;;;;;;2.65;0.90;;;25.50;53.30;24.60;101619.00;;;;5011259;28;20041;-66
2022/07/22 04:44:17;;;;;;;1.75;0.73;;;25.50;53.20;24.60;101636.00;;;;5025363;28;20044;-66
2022/07/22 04:47:03;;;;;;;1.85;0.60;;;25.50;53.20;24.60;101617.00;;;;5022896;28;20037;-66
2022/07/22 04:49:50;;;;;;;2.33;0.95;;;25.40;53.10;24.60;101627.00;;;;5023044;28;20037;-66
2022/07/22 04:52:36;;;;;;;2.88;0.60;;;25.50;53.20;24.60;101622.00;;;;5021350;28;20562;-78
2022/07/22 04:55:22;;;;;;;2.03;0.85;;;25.50;53.20;24.60;101621.00;;;;5024284;28;20170;-66
2022/07/22 04:58:08;;;;;;;1.70;0.70;;;25.30;53.10;24.60;101620.00;;;;5019345;28;20037;-66
2022/07/22 05:00:54;;;;;;;1.90;0.60;;;25.40;53.10;24.60;101628.00;;;;5019157;28;20151;-66
2022/07/22 05:03:40;;;;;;;1.40;0.70;;;25.50;53.20;24.60;101630.00;;;;5026766;28;20107;-66
2022/07/22 05:06:27;;;;;;;1.73;0.60;;;25.50;53.20;24.60;101631.00;;;;5025062;28;20033;-66
2022/07/22 05:09:13;;;;;;;2.53;1.40;;;25.50;53.20;24.60;101641.00;;;;5021720;28;20121;-66
2022/07/22 05:11:59;;;;;;;2.00;0.80;;;25.40;53.10;24.60;101627.00;;;;5021439;28;20475;-66
2022/07/22 05:14:45;;;;;;;2.90;0.82;;;25.50;53.20;24.60;101638.00;;;;5021317;28;20349;-66
2022/07/22 05:17:31;;;;;;;2.08;1.15;;;25.50;53.20;24.60;101642.00;;;;5023123;28;20045;-66
2022/07/22 05:20:21;;;;;;;1.35;0.77;;;25.50;53.20;24.60;101635.00;;;;5027439;28;20037;-66
2022/07/22 05:23:07;;;;;;;2.05;1.00;;;25.50;53.20;24.60;101641.00;;;;5021397;28;20161;-66
2022/07/22 05:25:53;;;;;;;2.50;0.70;;;25.40;53.00;24.60;101642.00;;;;5024715;28;20037;-66
2022/07/22 05:28:39;;;;;;;1.40;0.57;;;25.50;53.10;24.60;101639.00;;;;5021156;28;20490;-66
2022/07/22 05:31:25;;;;;;;2.35;0.80;;;25.50;53.10;24.60;101636.00;;;;5021543;28;20060;-66
2022/07/22 05:34:11;;;;;;;3.00;0.98;;;25.40;53.00;24.60;101639.00;;;;5023759;28;20037;-66
2022/07/22 05:36:57;;;;;;;2.58;1.20;;;25.50;53.10;24.60;101645.00;;;;5025005;28;20036;-66
2022/07/22 05:39:43;;;;;;;4.85;1.00;;;25.40;53.00;24.60;101648.00;;;;5017548;28;20041;-66
2022/07/22 05:42:30;;;;;;;2.80;1.23;;;25.40;52.90;24.60;101643.00;;;;5020217;28;20096;-66
2022/07/22 05:45:16;;;;;;;3.03;1.00;;;25.40;52.90;24.60;101650.00;;;;5020919;28;20045;-66
2022/07/22 05:48:02;;;;;;;1.92;0.93;;;25.40;52.90;24.60;101650.00;;;;5023855;28;20032;-66
2022/07/22 05:50:48;;;;;;;2.03;0.77;;;25.40;52.90;24.60;101652.00;;;;5022750;28;20045;-66
2022/07/22 05:53:34;;;;;;;3.78;1.38;;;25.30;52.90;24.60;101653.00;;;;5022374;28;20038;-66
2022/07/22 05:56:20;;;;;;;1.58;0.93;;;25.40;52.90;24.50;101653.00;;;;5031144;28;20049;-66
2022/07/22 05:59:06;;;;;;;3.58;1.17;;;25.40;52.90;24.50;101662.00;;;;5017546;28;20045;-66
2022/07/22 06:01:52;;;;;;;2.47;1.15;;;25.40;52.90;24.50;101660.00;;;;5025617;28;20056;-66
2022/07/22 06:04:38;;;;;;;2.55;0.88;;;25.40;52.90;24.50;101657.00;;;;5021965;28;20045;-66
2022/07/22 06:07:26;;;;;;;1.58;0.73;;;25.40;52.90;24.50;101656.00;;;;5025147;28;20037;-66
2022/07/22 06:10:12;;;;;;;3.53;1.40;;;25.40;52.90;24.50;101650.00;;;;5022789;28;20069;-66
2022/07/22 06:12:58;;;;;;;3.08;1.30;;;25.40;52.90;24.50;101651.00;;;;5007566;28;20463;-66
2022/07/22 06:15:44;;;;;;;4.80;0.80;;;25.30;52.90;24.50;101650.00;;;;5023981;28;20399;-66
2022/07/22 06:18:30;;;;;;;1.50;0.70;;;25.40;52.90;24.50;101657.00;;;;5028792;28;20479;-66
2022/07/22 06:21:16;;;;;;;2.00;0.98;;;25.30;52.90;24.50;101656.00;;;;5020650;28;20046;-67
2022/07/22 06:24:02;;;;;;;1.85;0.80;;;25.40;53.00;24.50;101653.00;;;;5025497;28;20705;-66
2022/07/22 06:26:48;;;;;;;1.58;0.73;;;25.40;53.00;24.50;101652.00;;;;5024096;28;20103;-66
2022/07/22 06:29:34;;;;;;;1.30;0.70;;;25.40;53.00;24.50;101657.00;;;;5025030;28;20034;-66
2022/07/22 06:32:20;;;;;;;1.35;0.70;;;25.40;52.90;24.50;101662.00;;;;5027779;28;20050;-66
2022/07/22 06:35:07;;;;;;;2.30;0.63;;;25.40;52.90;24.50;101658.00;;;;5028509;28;20037;-66
2022/07/22 06:37:53;;;;;;;2.40;1.40;;;25.40;52.90;24.50;101658.00;;;;5030606;28;20579;-66
2022/07/22 06:40:39;;;;;;;2.80;1.02;;;25.40;52.90;24.50;101658.00;;;;5024090;28;20044;-66
2022/07/22 06:43:28;;;;;;;1.33;0.90;;;25.40;52.80;24.50;101662.00;;;;5028508;28;20041;-66
2022/07/22 06:46:14;;;;;;;2.70;1.00;;;25.40;52.80;24.50;101669.00;;;;5023209;28;20033;-66
2022/07/22 06:49:00;;;;;;;0.50;0.50;;;25.40;52.90;24.50;101658.00;;;;5030856;28;20036;-66
2022/07/22 06:51:46;;;;;;;1.77;1.00;;;25.40;52.90;24.50;101662.00;;;;5027871;28;20064;-66
2022/07/22 06:54:32;;;;;;;2.25;0.93;;;25.40;52.80;24.50;101658.00;;;;5022419;28;20279;-66
2022/07/22 06:57:18;;;;;;;2.08;0.73;;;25.40;52.70;24.50;101659.00;;;;5032586;28;20045;-66
2022/07/22 07:00:07;;;;;;;2.63;0.90;;;25.40;52.80;24.50;101655.00;;;;5023402;28;20184;-68
2022/07/22 07:02:53;;;;;;;1.52;1.25;;;25.40;52.70;24.50;101655.00;;;;5023065;28;20091;-67
2022/07/22 07:05:39;;;;;;;3.17;1.23;;;25.40;52.70;24.50;101655.00;;;;5023662;28;20033;-67
2022/07/22 07:08:25;;;;;;;3.15;1.20;;;25.40;52.70;24.50;101652.00;;;;5025675;28;20234;-67
2022/07/22 07:11:11;;;;;;;1.75;0.88;;;25.40;52.70;24.50;101652.00;;;;5025988;28;20367;-67
2022/07/22 07:13:57;;;;;;;1.35;0.60;;;25.40;52.70;24.50;101654.00;;;;5023989;28;20037;-67
2022/07/22 07:16:43;;;;;;;2.92;0.90;;;25.50;52.80;24.50;101647.00;;;;5022235;28;20046;-67
2022/07/22 07:19:29;;;;;;;2.20;0.63;;;25.40;52.50;24.50;101650.00;;;;5025630;28;20794;-67
2022/07/22 07:22:15;;;;;;;1.92;0.80;;;25.40;52.70;24.50;101652.00;;;;5023934;28;20066;-67
2022/07/22 07:25:06;;;;;;;3.47;1.35;;;25.50;52.80;24.50;101651.00;;;;5022711;28;20053;-67
2022/07/22 07:27:52;;;;;;;2.38;1.00;;;25.40;52.70;24.50;101646.00;;;;5023631;28;20037;-68
2022/07/22 07:30:38;;;;;;;2.50;0.90;;;25.40;52.70;24.50;101647.00;;;;5020324;28;20515;-68
2022/07/22 07:33:24;;;;;;;1.10;0.77;;;25.40;52.70;24.50;101644.00;;;;5021822;28;20476;-67
2022/07/22 07:36:11;;;;;;;3.28;0.93;;;25.40;52.60;24.50;101647.00;;;;5021766;28;20049;-67
2022/07/22 07:38:57;;;;;;;2.67;1.05;;;25.40;52.60;24.50;101657.00;;;;5020056;28;20043;-66
2022/07/22 07:41:43;;;;;;;1.10;0.63;;;25.40;52.50;24.50;101647.00;;;;5024010;28;20041;-66
2022/07/22 07:44:29;;;;;;;1.95;1.00;;;25.40;52.40;24.50;101655.00;;;;5021216;28;20044;-67
2022/07/22 07:47:17;;;;;;;2.70;0.70;;;25.40;52.20;24.50;101653.00;;;;5028275;28;20046;-66
2022/07/22 07:50:07;;;;;;;3.40;1.00;;;25.40;52.00;24.50;101655.00;;;;5021267;28;20040;-66
2022/07/22 07:52:53;;;;;;;1.88;0.80;;;25.40;52.00;24.50;101646.00;;;;5011190;28;20073;-66
2022/07/22 07:55:39;;;;;;;2.90;0.80;;;25.40;52.10;24.50;101644.00;;;;5030007;28;20038;-66
2022/07/22 07:58:25;;;;;;;1.55;0.75;;;25.40;52.20;24.50;101642.00;;;;5022733;28;20077;-66
2022/07/22 08:01:11;;;;;;;2.65;0.90;;;25.50;52.40;24.50;101645.00;;;;5022471;28;20069;-66
2022/07/22 08:03:57;;;;;;;1.48;0.60;;;25.40;52.30;24.50;101651.00;;;;5023458;28;20042;-65
2022/07/22 08:06:43;;;;;;;1.40;0.82;;;25.40;52.40;24.50;101650.00;;;;5027657;28;20033;-66
2022/07/22 08:09:29;;;;;;;2.15;0.77;;;25.40;52.40;24.50;101647.00;;;;5024612;28;20040;-66
2022/07/22 08:12:15;;;;;;;4.20;0.68;;;25.40;52.40;24.50;101660.00;;;;5021564;28;20063;-65
2022/07/22 08:15:02;;;;;;;1.98;0.70;;;25.40;52.40;24.50;101647.00;;;;5023940;28;20072;-65
2022/07/22 08:17:48;;;;;;;3.65;1.10;;;25.40;52.30;24.50;101642.00;;;;5017838;28;20056;-65
2022/07/22 08:20:34;;;;;;;1.90;1.00;;;25.40;52.30;24.50;101650.00;;;;5023479;28;20045;-65
2022/07/22 08:23:20;;;;;;;1.98;0.82;;;25.40;52.00;24.50;101655.00;;;;5025849;28;20052;-66
2022/07/22 08:26:06;;;;;;;2.35;0.80;;;25.40;52.20;24.50;101658.00;;;;5021282;28;20044;-68
2022/07/22 08:28:52;;;;;;;2.35;0.60;;;25.40;52.30;24.50;101647.00;;;;5020477;28;20046;-66
2022/07/22 08:31:38;;;;;;;1.02;0.60;;;25.40;52.20;24.50;101650.00;;;;5029695;28;20040;-66
2022/07/22 08:34:24;;;;;;;2.45;0.60;;;25.40;52.30;24.50;101655.00;;;;5015912;28;20404;-66
2022/07/22 08:37:10;;;;;;;1.67;0.70;;;25.40;52.20;24.50;101654.00;;;;5015651;28;20073;-66
2022/07/22 08:39:58;;;;;;;0.85;0.65;;;25.40;52.20;24.50;101655.00;;;;5019057;28;20068;-66
2022/07/22 08:42:45;;;;;;;1.42;0.52;;;25.40;52.20;24.50;101659.00;;;;5024404;28;20045;-66
2022/07/22 08:45:32;;;;;;;1.48;0.55;;;25.40;52.10;24.50;101652.00;;;;5022187;28;20046;-66
2022/07/22 08:48:18;;;;;;;2.10;0.90;;;25.40;52.20;24.50;101651.00;;;;5042686;28;20148;-66
2022/07/22 08:51:04;;;;;;;3.67;0.93;;;25.40;52.00;24.50;101654.00;;;;5021498;28;20045;-66
2022/07/22 08:53:50;;;;;;;1.48;0.70;;;25.40;51.90;24.50;101660.00;;;;5024691;28;20083;-66
2022/07/22 08:56:38;;;;;;;0.88;0.60;;;25.40;51.90;24.50;101657.00;;;;5017681;28;20041;-66
2022/07/22 08:59:25;;;;;;;1.25;0.60;;;25.40;52.00;24.50;101648.00;;;;5023136;28;20037;-66
2022/07/22 09:02:11;;;;;;;1.55;0.52;;;25.40;51.90;24.50;101661.00;;;;5020070;28;20034;-66
2022/07/22 09:05:05;;;;;;;1.65;0.60;;;25.40;51.90;24.50;101664.00;;;;5021638;28;20456;-65
2022/07/22 09:07:51;;;;;;;1.58;0.80;;;25.40;52.00;24.50;101672.00;;;;5017291;28;20094;-65
2022/07/22 09:10:37;;;;;;;1.10;0.75;;;25.40;52.10;24.50;101664.00;;;;5021008;28;20036;-66
2022/07/22 09:13:23;;;;;;;1.10;0.55;;;25.30;51.80;24.50;101673.00;;;;5022071;28;20495;-66
2022/07/22 09:16:09;;;;;;;0.95;0.70;;;25.50;52.00;24.50;101672.00;;;;5028642;28;20041;-65
2022/07/22 09:18:55;;;;;;;0.70;0.57;;;25.40;51.90;24.50;101670.00;;;;5018936;28;20046;-66
2022/07/22 09:21:44;;;;;;;2.40;0.80;;;25.40;51.90;24.50;101664.00;;;;5025217;28;20107;-66
2022/07/22 09:24:32;;;;;;;1.05;0.75;;;25.40;52.00;24.50;101659.00;;;;5018048;28;20503;-65
2022/07/22 09:27:25;;;;;;;3.03;0.90;;;25.40;51.90;24.50;101662.00;;;;5019608;28;20038;-66
2022/07/22 09:30:20;;;;;;;0.73;0.52;;;25.30;51.60;24.50;101662.00;;;;5042863;28;20047;-65
2022/07/22 09:33:07;;;;;;;1.90;0.60;;;25.40;51.70;24.50;101669.00;;;;5021355;28;20501;-65
2022/07/22 09:36:01;;;;;;;0.80;0.70;;;25.40;51.80;24.50;101665.00;;;;5024422;28;20392;-65
2022/07/22 09:38:47;;;;;;;0.98;0.70;;;25.40;51.80;24.50;101666.00;;;;5038946;28;20080;-66
2022/07/22 09:41:33;;;;;;;1.20;0.60;;;25.40;51.80;24.50;101674.00;;;;5024003;28;20037;-66
2022/07/22 09:44:23;;;;;;;2.35;0.82;;;25.40;51.80;24.50;101666.00;;;;5028945;28;20502;-65
2022/07/22 09:47:28;;;;;;;1.90;0.55;;;25.40;51.80;24.50;101661.00;;;;5023644;28;20092;-66
2022/07/22 09:50:16;;;;;;;1.90;0.70;;;25.40;51.70;24.50;101666.00;;;;5024114;28;20053;-65
2022/07/22 09:53:02;;;;;;;1.42;0.63;;;25.40;51.80;24.50;101664.00;;;;5024801;28;20052;-65
2022/07/22 09:55:48;;;;;;;1.50;0.80;;;25.40;51.60;24.50;101670.00;;;;5020800;28;20037;-65
2022/07/22 09:58:34;;;;;;;1.70;0.90;;;25.40;51.60;24.50;101668.00;;;;5024651;28;20488;-65
2022/07/22 10:01:21;;;;;;;1.15;0.80;;;25.40;51.70;24.50;101661.00;;;;5023608;28;20132;-65
2022/07/22 10:04:07;;;;;;;0.65;0.47;;;25.30;51.70;24.50;101660.00;;;;5019174;28;20572;-65
2022/07/22 10:06:53;;;;;;;1.10;0.68;;;25.40;51.60;24.50;101661.00;;;;5022486;28;20037;-66
2022/07/22 10:09:39;;;;;;;0.65;0.60;;;25.30;51.60;24.50;101665.00;;;;5036784;28;20041;-66
2022/07/22 10:12:26;;;;;;;0.88;0.57;;;25.40;51.60;24.50;101665.00;;;;5055505;28;20502;-66
2022/07/22 10:15:12;;;;;;;0.82;0.55;;;25.40;51.60;24.50;101665.00;;;;5026491;28;20075;-66
2022/07/22 10:18:29;;;;;;;1.80;0.73;;;25.30;51.50;24.50;101663.00;;;;5027295;28;20482;-66
2022/07/22 10:21:17;;;;;;;1.17;0.73;;;25.40;51.60;24.50;101667.00;;;;5032789;28;20045;-66
2022/07/22 10:24:17;;;;;;;1.77;0.70;;;25.40;51.50;24.50;101671.00;;;;5025335;28;20042;-66
2022/07/22 10:27:04;;;;;;;1.95;0.60;;;25.40;51.60;24.50;101669.00;;;;5012789;28;20037;-66
2022/07/22 10:29:50;;;;;;;4.03;1.05;;;25.40;51.60;24.50;101670.00;;;;5025634;28;20235;-66
2022/07/22 10:32:36;;;;;;;1.15;0.70;;;25.40;51.60;24.50;101662.00;;;;5030959;28;20110;-66
2022/07/22 10:35:22;;;;;;;2.67;0.73;;;25.40;51.60;24.50;101660.00;;;;5018449;28;20072;-66
2022/07/22 10:38:11;;;;;;;2.63;0.63;;;25.40;51.60;24.50;101659.00;;;;5030212;28;20041;-67
2022/07/22 10:41:11;;;;;;;2.00;0.60;;;25.50;51.70;24.50;101659.00;;;;5023737;28;20048;-66
2022/07/22 10:43:57;;;;;;;2.28;0.80;;;25.40;51.50;24.40;101656.00;;;;5024330;28;20087;-66
2022/07/22 10:46:54;;;;;;;2.08;0.70;;;25.40;51.30;24.40;101656.00;;;;5029884;28;20044;-66
2022/07/22 10:49:40;;;;;;;3.55;0.70;;;25.40;51.20;24.40;101659.00;;;;5038699;28;20117;-66
2022/07/22 10:52:34;;;;;;;6.97;1.17;;;25.40;51.40;24.40;101652.00;;;;5024540;28;20390;-66
2022/07/22 10:55:21;;;;;;;4.72;0.90;;;25.40;51.30;24.40;101643.00;;;;5029062;28;20104;-66
2022/07/22 10:58:44;;;;;;;6.07;1.40;;;25.40;51.20;24.40;101651.00;;;;5026172;28;20041;-66
2022/07/22 11:01:31;;;;;;;8.75;1.30;;;25.40;51.40;24.40;101651.00;;;;5011505;28;20038;-66
2022/07/22 11:04:22;;;;;;;5.75;1.40;;;25.40;51.30;24.50;101654.00;;;;5025407;28;20574;-66
2022/07/22 11:07:08;;;;;;;4.72;1.10;;;25.40;51.30;24.40;101648.00;;;;5025687;28;20056;-66
2022/07/22 11:09:54;;;;;;;3.83;1.15;;;25.50;51.40;24.50;101642.00;;;;5013054;28;20084;-66
2022/07/22 11:12:41;;;;;;;4.78;1.02;;;25.40;51.40;24.50;101635.00;;;;4999313;28;20046;-66
2022/07/22 11:15:27;;;;;;;3.78;1.00;;;25.40;51.30;24.50;101644.00;;;;5031678;28;20056;-66
2022/07/22 11:18:13;;;;;;;4.72;1.00;;;25.40;51.30;24.50;101641.00;;;;5027802;28;20115;-66
2022/07/22 11:20:59;;;;;;;7.57;1.48;;;25.50;51.30;24.50;101633.00;;;;5025027;28;20094;-66
2022/07/22 11:23:46;;;;;;;2.80;0.80;;;25.40;51.20;24.50;101633.00;;;;5029648;28;20036;-66
2022/07/22 11:26:45;;;;;;;;;;;25.40;51.20;24.40;101635.00;;;;5020090;28;20034;-66
2022/07/22 11:29:40;;;;;;;2.17;0.90;;;25.40;51.40;24.40;101621.00;;;;5051520;28;19924;-66
2022/07/22 11:32:30;;;;;;;3.22;0.70;;;25.40;51.00;24.40;101624.00;;;;5032038;28;20501;-66
2022/07/22 11:35:16;;;;;;;2.22;0.90;;;25.40;50.90;24.50;101618.00;;;;5022827;28;20056;-66
2022/07/22 11:38:02;;;;;;;4.15;0.98;;;25.40;51.00;24.50;101618.00;;;;5028648;28;20045;-66
2022/07/22 11:40:48;;;;;;;5.13;1.00;;;25.40;51.10;24.50;101618.00;;;;5018400;28;20046;-66
2022/07/22 11:44:01;;;;;;;2.33;0.80;;;25.50;51.20;24.50;101614.00;;;;5021786;28;20038;-66
2022/07/22 11:46:47;;;;;;;1.60;0.70;;;25.40;51.20;24.50;101626.00;;;;5005186;28;20117;-66
2022/07/22 11:49:35;;;;;;;3.88;0.85;;;25.40;51.20;24.50;101640.00;;;;5020907;28;20037;-66
2022/07/22 11:52:21;;;;;;;1.55;0.90;;;25.40;51.10;24.50;101632.00;;;;5031799;28;20420;-66
2022/07/22 11:55:16;;;;;;;2.25;0.98;;;25.40;51.10;24.50;101633.00;;;;5025988;28;20473;-66
2022/07/22 11:58:02;;;;;;;1.13;0.70;;;25.40;51.10;24.50;101626.00;;;;5026923;28;20056;-66
2022/07/22 12:00:49;;;;;;;2.95;0.73;;;25.40;51.10;24.50;101625.00;;;;5026033;28;20048;-66
2022/07/22 12:03:36;;;;;;;2.85;0.80;;;25.40;51.00;24.50;101626.00;;;;5018372;28;20037;-66
2022/07/22 12:06:22;;;;;;;1.70;0.77;;;25.40;51.10;24.50;101623.00;;;;5033259;28;20048;-66
2022/07/22 12:09:15;;;;;;;2.17;0.90;;;25.50;51.10;24.50;101616.00;;;;5037590;28;20040;-66
2022/07/22 12:12:02;;;;;;;3.50;1.05;;;25.40;51.00;24.50;101624.00;;;;5038218;28;20034;-66
2022/07/22 12:14:48;;;;;;;5.28;0.93;;;25.40;50.90;24.50;101629.00;;;;5029693;28;20041;-66